createdAt,value
2023-09-26T00:00:59.000Z,279.96
2023-09-26T00:03:06.000Z,279.9
2023-09-26T00:04:32.000Z,279.84
2023-09-26T00:06:39.000Z,279.84
2023-09-26T00:08:05.000Z,279.77
2023-09-26T00:10:12.000Z,279.71
2023-09-26T00:11:39.000Z,279.65
2023-09-26T00:13:45.000Z,279.65
2023-09-26T00:15:11.000Z,279.71
2023-09-26T00:17:18.000Z,279.65
2023-09-26T00:18:44.000Z,279.65
2023-09-26T00:20:50.000Z,279.65
2023-09-26T00:22:17.000Z,279.59
2023-09-26T00:24:23.000Z,279.59
2023-09-26T00:27:08.000Z,279.59
2023-09-26T00:28:35.000Z,279.52
2023-09-26T00:30:41.000Z,279.46
2023-09-26T00:32:08.000Z,279.52
2023-09-26T00:34:14.000Z,279.65
2023-09-26T00:35:40.000Z,279.65
2023-09-26T00:37:46.000Z,279.71
2023-09-26T00:39:13.000Z,279.77
2023-09-26T00:41:19.000Z,279.77
2023-09-26T00:42:46.000Z,279.84
2023-09-26T00:44:52.000Z,279.84
2023-09-26T00:46:19.000Z,279.71
2023-09-26T00:48:25.000Z,279.59
2023-09-26T00:49:51.000Z,279.52
2023-09-26T00:51:58.000Z,279.46
2023-09-26T00:53:24.000Z,279.46
2023-09-26T00:55:30.000Z,279.4
2023-09-26T00:56:57.000Z,279.4
2023-09-26T00:59:03.000Z,279.4
2023-09-26T01:00:29.000Z,279.4
2023-09-26T01:02:35.000Z,279.27
2023-09-26T01:05:21.000Z,279.34
2023-09-26T01:06:47.000Z,279.34
2023-09-26T01:08:54.000Z,279.27
2023-09-26T01:10:20.000Z,279.21
2023-09-26T01:12:26.000Z,279.21
2023-09-26T01:13:53.000Z,279.21
2023-09-26T01:15:59.000Z,279.21
2023-09-26T01:17:26.000Z,279.15
2023-09-26T01:19:32.000Z,279.09
2023-09-26T01:20:59.000Z,279.02
2023-09-26T01:23:05.000Z,278.96
2023-09-26T01:24:32.000Z,279.02
2023-09-26T01:26:38.000Z,279.02
2023-09-26T01:28:04.000Z,279.09
2023-09-26T01:30:11.000Z,279.21
2023-09-26T01:31:37.000Z,279.21
2023-09-26T01:33:44.000Z,279.21
2023-09-26T01:35:10.000Z,279.34
2023-09-26T01:37:16.000Z,279.34
2023-09-26T01:38:43.000Z,279.27
2023-09-26T01:40:49.000Z,279.27
2023-09-26T01:43:34.000Z,279.27
2023-09-26T01:45:01.000Z,279.27
2023-09-26T01:47:07.000Z,279.27
2023-09-26T01:48:34.000Z,279.27
2023-09-26T01:50:40.000Z,279.34
2023-09-26T01:52:06.000Z,279.34
2023-09-26T01:54:13.000Z,279.27
2023-09-26T01:55:40.000Z,279.27
2023-09-26T01:57:46.000Z,279.27
2023-09-26T01:59:13.000Z,279.27
2023-09-26T02:01:19.000Z,279.34
2023-09-26T02:02:45.000Z,279.27
2023-09-26T02:04:52.000Z,279.27
2023-09-26T02:06:18.000Z,279.27
2023-09-26T02:08:24.000Z,279.4
2023-09-26T02:09:51.000Z,279.46
2023-09-26T02:11:57.000Z,279.46
2023-09-26T02:13:23.000Z,279.46
2023-09-26T02:15:30.000Z,279.4
2023-09-26T02:16:56.000Z,279.46
2023-09-26T02:19:03.000Z,279.52
2023-09-26T02:21:49.000Z,279.4
2023-09-26T02:23:15.000Z,279.34
2023-09-26T02:25:21.000Z,279.4
2023-09-26T02:26:48.000Z,279.46
2023-09-26T02:28:54.000Z,279.46
2023-09-26T02:30:20.000Z,279.46
2023-09-26T02:32:27.000Z,279.34
2023-09-26T02:33:53.000Z,279.27
2023-09-26T02:36:00.000Z,279.21
2023-09-26T02:37:26.000Z,279.21
2023-09-26T02:39:32.000Z,279.27
2023-09-26T02:40:59.000Z,279.27
2023-09-26T02:43:05.000Z,279.21
2023-09-26T02:44:32.000Z,279.27
2023-09-26T02:46:38.000Z,279.34
2023-09-26T02:48:05.000Z,279.34
2023-09-26T02:50:11.000Z,279.27
2023-09-26T02:51:38.000Z,279.27
2023-09-26T02:53:44.000Z,279.21
2023-09-26T02:55:10.000Z,279.21
2023-09-26T02:57:18.000Z,279.15
2023-09-26T03:00:03.000Z,279.15
2023-09-26T03:01:29.000Z,279.21
2023-09-26T03:03:36.000Z,279.21
2023-09-26T03:05:02.000Z,279.21
2023-09-26T03:07:08.000Z,279.21
2023-09-26T03:08:35.000Z,279.21
2023-09-26T03:10:41.000Z,279.15
2023-09-26T03:12:08.000Z,279.15
2023-09-26T03:14:14.000Z,279.15
2023-09-26T03:15:40.000Z,279.15
2023-09-26T03:17:47.000Z,279.09
2023-09-26T03:19:13.000Z,279.09
2023-09-26T03:21:20.000Z,279.09
2023-09-26T03:22:46.000Z,279.09
2023-09-26T03:24:52.000Z,278.96
2023-09-26T03:26:19.000Z,278.84
2023-09-26T03:28:25.000Z,278.77
2023-09-26T03:29:51.000Z,278.77
2023-09-26T03:31:58.000Z,278.71
2023-09-26T03:33:24.000Z,278.71
2023-09-26T03:35:31.000Z,278.65
2023-09-26T03:38:16.000Z,278.71
2023-09-26T03:39:42.000Z,278.77
2023-09-26T03:41:49.000Z,278.71
2023-09-26T03:43:15.000Z,278.71
2023-09-26T03:45:21.000Z,278.59
2023-09-26T03:46:48.000Z,278.52
2023-09-26T03:48:54.000Z,278.52
2023-09-26T03:50:21.000Z,278.52
2023-09-26T03:52:27.000Z,278.46
2023-09-26T03:53:54.000Z,278.46
2023-09-26T03:56:00.000Z,278.46
2023-09-26T03:57:26.000Z,278.46
2023-09-26T03:59:33.000Z,278.46
2023-09-26T04:00:59.000Z,278.46
2023-09-26T04:03:05.000Z,278.4
2023-09-26T04:04:32.000Z,278.46
2023-09-26T04:06:38.000Z,278.46
2023-09-26T04:08:05.000Z,278.52
2023-09-26T04:10:11.000Z,278.59
2023-09-26T04:11:38.000Z,278.65
2023-09-26T04:13:44.000Z,278.71
2023-09-26T04:16:29.000Z,278.71
2023-09-26T04:17:56.000Z,278.71
2023-09-26T04:20:02.000Z,278.71
2023-09-26T04:21:29.000Z,278.65
2023-09-26T04:23:35.000Z,278.59
2023-09-26T04:25:02.000Z,278.46
2023-09-26T04:27:08.000Z,278.4
2023-09-26T04:28:34.000Z,278.46
2023-09-26T04:30:41.000Z,278.46
2023-09-26T04:32:07.000Z,278.46
2023-09-26T04:34:14.000Z,278.52
2023-09-26T04:35:40.000Z,278.52
2023-09-26T04:37:46.000Z,278.59
2023-09-26T04:39:13.000Z,278.52
2023-09-26T04:41:19.000Z,278.46
2023-09-26T04:42:46.000Z,278.46
2023-09-26T04:44:52.000Z,278.46
2023-09-26T04:46:18.000Z,278.34
2023-09-26T04:48:24.000Z,278.34
2023-09-26T04:49:51.000Z,278.21
2023-09-26T04:51:57.000Z,278.27
2023-09-26T04:54:42.000Z,278.27
2023-09-26T04:56:09.000Z,278.21
2023-09-26T04:58:16.000Z,278.09
2023-09-26T04:59:43.000Z,278.09
2023-09-26T05:01:49.000Z,277.96
2023-09-26T05:03:15.000Z,278.02
2023-09-26T05:05:22.000Z,278.02
2023-09-26T05:06:48.000Z,277.96
2023-09-26T05:08:55.000Z,277.9
2023-09-26T05:10:21.000Z,277.9
2023-09-26T05:12:27.000Z,277.84
2023-09-26T05:13:54.000Z,277.84
2023-09-26T05:16:00.000Z,277.77
2023-09-26T05:17:26.000Z,277.77
2023-09-26T05:19:33.000Z,277.84
2023-09-26T05:20:59.000Z,277.84
2023-09-26T05:23:05.000Z,277.9
2023-09-26T05:24:32.000Z,277.84
2023-09-26T05:26:38.000Z,277.96
2023-09-26T05:28:05.000Z,277.96
2023-09-26T05:30:11.000Z,277.96
2023-09-26T05:32:57.000Z,278.02
2023-09-26T05:34:23.000Z,278.09
2023-09-26T05:36:30.000Z,278.09
2023-09-26T05:37:56.000Z,278.09
2023-09-26T05:40:03.000Z,278.15
2023-09-26T05:41:29.000Z,278.15
2023-09-26T05:43:35.000Z,278.09
2023-09-26T05:45:02.000Z,278.02
2023-09-26T05:47:09.000Z,278.15
2023-09-26T05:48:35.000Z,278.21
2023-09-26T05:50:42.000Z,278.21
2023-09-26T05:52:09.000Z,278.21
2023-09-26T05:54:15.000Z,278.27
2023-09-26T05:55:56.000Z,278.27
2023-09-26T05:58:02.000Z,278.34
2023-09-26T05:59:29.000Z,278.34
2023-09-26T06:01:35.000Z,278.34
2023-09-26T06:03:02.000Z,278.4
2023-09-26T06:05:08.000Z,278.46
2023-09-26T06:06:35.000Z,278.46
2023-09-26T06:08:41.000Z,278.52
2023-09-26T06:11:26.000Z,278.59
2023-09-26T06:12:52.000Z,278.59
2023-09-26T06:14:59.000Z,278.65
2023-09-26T06:16:25.000Z,278.65
2023-09-26T06:18:32.000Z,278.71
2023-09-26T06:19:58.000Z,278.77
2023-09-26T06:22:04.000Z,278.77
2023-09-26T06:23:31.000Z,278.84
2023-09-26T06:25:37.000Z,278.84
2023-09-26T06:27:20.000Z,278.77
2023-09-26T06:29:26.000Z,278.77
2023-09-26T06:30:53.000Z,278.77
2023-09-26T06:32:59.000Z,278.84
2023-09-26T06:34:26.000Z,278.9
2023-09-26T06:36:32.000Z,279.02
2023-09-26T06:37:59.000Z,279.09
2023-09-26T06:40:05.000Z,279.15
2023-09-26T06:41:32.000Z,279.21
2023-09-26T06:43:38.000Z,279.27
2023-09-26T06:45:04.000Z,279.34
2023-09-26T06:47:10.000Z,279.4
2023-09-26T06:49:56.000Z,279.59
2023-09-26T06:51:23.000Z,279.65
2023-09-26T06:53:29.000Z,279.71
2023-09-26T06:54:55.000Z,279.71
2023-09-26T06:57:01.000Z,279.84
2023-09-26T06:58:28.000Z,279.96
2023-09-26T07:00:34.000Z,280.09
2023-09-26T07:02:01.000Z,280.15
2023-09-26T07:04:07.000Z,280.34
2023-09-26T07:05:34.000Z,280.46
2023-09-26T07:07:40.000Z,280.59
2023-09-26T07:09:07.000Z,280.71
2023-09-26T07:11:13.000Z,280.84
2023-09-26T07:12:39.000Z,280.9
2023-09-26T07:14:46.000Z,280.9
2023-09-26T07:16:12.000Z,281.02
2023-09-26T07:18:18.000Z,281.02
2023-09-26T07:19:45.000Z,280.96
2023-09-26T07:21:51.000Z,281.09
2023-09-26T07:23:18.000Z,280.96
2023-09-26T07:25:24.000Z,280.96
2023-09-26T07:28:10.000Z,281.21
2023-09-26T07:29:36.000Z,281.34
2023-09-26T07:31:42.000Z,281.34
2023-09-26T07:33:09.000Z,281.27
2023-09-26T07:35:16.000Z,281.27
2023-09-26T07:36:43.000Z,281.46
2023-09-26T07:38:49.000Z,281.65
2023-09-26T07:40:16.000Z,281.77
2023-09-26T07:42:22.000Z,281.96
2023-09-26T07:43:49.000Z,282.02
2023-09-26T07:45:56.000Z,282.15
2023-09-26T07:47:22.000Z,282.21
2023-09-26T07:49:29.000Z,282.34
2023-09-26T07:50:55.000Z,282.4
2023-09-26T07:53:01.000Z,282.4
2023-09-26T07:54:28.000Z,282.46
2023-09-26T07:56:34.000Z,282.59
2023-09-26T07:58:00.000Z,282.65
2023-09-26T08:00:07.000Z,282.71
2023-09-26T08:01:33.000Z,282.71
2023-09-26T08:03:40.000Z,282.71
2023-09-26T08:06:26.000Z,282.84
2023-09-26T08:07:52.000Z,282.9
2023-09-26T08:09:58.000Z,283.02
2023-09-26T08:11:25.000Z,283.09
2023-09-26T08:13:31.000Z,283.21
2023-09-26T08:14:57.000Z,283.27
2023-09-26T08:17:04.000Z,283.27
2023-09-26T08:18:30.000Z,283.21
2023-09-26T08:20:36.000Z,283.27
2023-09-26T08:22:03.000Z,283.46
2023-09-26T08:24:09.000Z,283.59
2023-09-26T08:25:36.000Z,283.65
2023-09-26T08:27:42.000Z,283.71
2023-09-26T08:29:09.000Z,283.77
2023-09-26T08:31:15.000Z,283.77
2023-09-26T08:32:41.000Z,283.9
2023-09-26T08:34:47.000Z,283.9
2023-09-26T08:36:14.000Z,283.77
2023-09-26T08:38:20.000Z,283.96
2023-09-26T08:39:46.000Z,284.15
2023-09-26T08:41:53.000Z,284.27
2023-09-26T08:44:38.000Z,284.52
2023-09-26T08:46:05.000Z,284.52
2023-09-26T08:48:11.000Z,284.59
2023-09-26T08:49:38.000Z,284.59
2023-09-26T08:51:44.000Z,284.65
2023-09-26T08:53:11.000Z,284.65
2023-09-26T08:55:18.000Z,284.71
2023-09-26T08:56:44.000Z,284.84
2023-09-26T08:58:50.000Z,284.9
2023-09-26T09:00:17.000Z,284.9
2023-09-26T09:02:24.000Z,284.96
2023-09-26T09:03:50.000Z,285.02
2023-09-26T09:05:56.000Z,285.09
2023-09-26T09:07:23.000Z,285.15
2023-09-26T09:09:29.000Z,285.21
2023-09-26T09:10:56.000Z,285.21
2023-09-26T09:13:02.000Z,285.34
2023-09-26T09:14:31.000Z,285.4
2023-09-26T09:16:38.000Z,285.46
2023-09-26T09:18:05.000Z,285.46
2023-09-26T09:20:11.000Z,285.59
2023-09-26T09:22:56.000Z,285.71
2023-09-26T09:24:22.000Z,285.84
2023-09-26T09:26:29.000Z,285.84
2023-09-26T09:27:55.000Z,285.84
2023-09-26T09:30:01.000Z,285.9
2023-09-26T09:31:28.000Z,285.96
2023-09-26T09:33:35.000Z,286.09
2023-09-26T09:35:01.000Z,286.15
2023-09-26T09:37:08.000Z,286.15
2023-09-26T09:38:34.000Z,286.27
2023-09-26T09:40:41.000Z,286.34
2023-09-26T09:42:07.000Z,286.46
2023-09-26T09:44:13.000Z,286.59
2023-09-26T09:45:40.000Z,286.65
2023-09-26T09:47:47.000Z,286.71
2023-09-26T09:49:13.000Z,286.77
2023-09-26T09:51:19.000Z,286.9
2023-09-26T09:52:46.000Z,286.96
2023-09-26T09:54:52.000Z,287.02
2023-09-26T09:56:19.000Z,287.09
2023-09-26T09:58:25.000Z,287.21
2023-09-26T10:01:11.000Z,287.21
2023-09-26T10:02:37.000Z,287.21
2023-09-26T10:04:44.000Z,287.34
2023-09-26T10:06:10.000Z,287.46
2023-09-26T10:08:16.000Z,287.52
2023-09-26T10:09:43.000Z,287.59
2023-09-26T10:11:49.000Z,287.71
2023-09-26T10:13:16.000Z,287.77
2023-09-26T10:15:40.000Z,287.9
2023-09-26T10:17:07.000Z,288.02
2023-09-26T10:19:13.000Z,288.21
2023-09-26T10:20:40.000Z,288.34
2023-09-26T10:22:57.000Z,288.4
2023-09-26T10:24:24.000Z,288.46
2023-09-26T10:26:30.000Z,288.59
2023-09-26T10:27:57.000Z,288.65
2023-09-26T10:30:05.000Z,288.71
2023-09-26T10:31:31.000Z,288.71
2023-09-26T10:33:38.000Z,288.84
2023-09-26T10:35:04.000Z,288.96
2023-09-26T10:37:10.000Z,289.02
2023-09-26T10:39:56.000Z,289.27
2023-09-26T10:41:23.000Z,289.27
2023-09-26T10:43:29.000Z,289.46
2023-09-26T10:45:10.000Z,289.4
2023-09-26T10:47:16.000Z,289.46
2023-09-26T10:48:43.000Z,289.52
2023-09-26T10:50:49.000Z,289.71
2023-09-26T10:52:16.000Z,289.71
2023-09-26T10:54:22.000Z,289.77
2023-09-26T10:55:49.000Z,289.84
2023-09-26T10:57:55.000Z,289.9
2023-09-26T10:59:22.000Z,290.09
2023-09-26T11:01:28.000Z,290.09
2023-09-26T11:17:18.000Z,290.71
2023-09-26T11:18:45.000Z,290.84
2023-09-26T11:20:51.000Z,290.9
2023-09-26T11:22:41.000Z,291.02
2023-09-26T11:24:47.000Z,290.96
2023-09-26T11:26:14.000Z,291.09
2023-09-26T11:28:20.000Z,291.21
2023-09-26T11:31:05.000Z,291.4
2023-09-26T11:32:32.000Z,291.4
2023-09-26T11:34:38.000Z,291.59
2023-09-26T11:36:05.000Z,291.52
2023-09-26T11:38:11.000Z,291.65
2023-09-26T11:39:37.000Z,291.71
2023-09-26T11:41:44.000Z,291.71
2023-09-26T11:43:15.000Z,291.77
2023-09-26T11:45:21.000Z,291.84
2023-09-26T11:46:48.000Z,291.84
2023-09-26T11:48:54.000Z,291.84
2023-09-26T11:50:21.000Z,291.84
2023-09-26T11:52:27.000Z,291.9
2023-09-26T11:53:54.000Z,292.15
2023-09-26T11:56:00.000Z,292.59
2023-09-26T11:57:27.000Z,292.77
2023-09-26T11:59:33.000Z,292.59
2023-09-26T12:01:00.000Z,292.77
2023-09-26T12:03:07.000Z,293.27
2023-09-26T12:04:33.000Z,293.09
2023-09-26T12:06:39.000Z,292.9
2023-09-26T12:09:25.000Z,293.21
2023-09-26T12:10:51.000Z,293.4
2023-09-26T12:12:58.000Z,293.4
2023-09-26T12:14:24.000Z,293.46
2023-09-26T12:16:30.000Z,293.15
2023-09-26T12:17:57.000Z,293.15
2023-09-26T12:20:04.000Z,293.46
2023-09-26T12:21:30.000Z,293.4
2023-09-26T12:23:37.000Z,293.21
2023-09-26T12:25:03.000Z,293.27
2023-09-26T12:27:10.000Z,293.46
2023-09-26T12:28:36.000Z,293.59
2023-09-26T12:30:43.000Z,293.59
2023-09-26T12:32:09.000Z,293.65
2023-09-26T12:34:16.000Z,293.71
2023-09-26T12:35:42.000Z,293.65
2023-09-26T12:37:48.000Z,293.9
2023-09-26T12:39:15.000Z,293.84
2023-09-26T12:41:21.000Z,293.71
2023-09-26T12:42:48.000Z,293.9
2023-09-26T12:44:54.000Z,293.9
2023-09-26T12:47:39.000Z,294.21
2023-09-26T12:49:06.000Z,294.15
2023-09-26T12:51:13.000Z,294.27
2023-09-26T12:52:39.000Z,294.4
2023-09-26T12:54:45.000Z,294.21
2023-09-26T12:56:12.000Z,294.09
2023-09-26T12:58:18.000Z,294.02
2023-09-26T12:59:45.000Z,293.96
2023-09-26T13:01:51.000Z,293.96
2023-09-26T13:03:18.000Z,294.09
2023-09-26T13:05:24.000Z,294.02
2023-09-26T13:06:50.000Z,294.09
2023-09-26T13:08:57.000Z,294.15
2023-09-26T13:10:23.000Z,294.09
2023-09-26T13:12:30.000Z,294.15
2023-09-26T13:13:56.000Z,294.21
2023-09-26T13:16:03.000Z,294.21
2023-09-26T13:17:29.000Z,294.27
2023-09-26T13:19:36.000Z,294.34
2023-09-26T13:21:03.000Z,294.4
2023-09-26T13:23:09.000Z,294.4
2023-09-26T13:25:54.000Z,294.46
2023-09-26T13:27:21.000Z,294.4
2023-09-26T13:29:27.000Z,294.4
2023-09-26T13:30:54.000Z,294.4
2023-09-26T13:33:00.000Z,294.4
2023-09-26T13:34:27.000Z,294.46
2023-09-26T13:36:33.000Z,294.59
2023-09-26T13:37:59.000Z,294.71
2023-09-26T13:40:09.000Z,294.84
2023-09-26T13:41:36.000Z,294.84
2023-09-26T13:43:42.000Z,294.77
2023-09-26T13:45:09.000Z,294.84
2023-09-26T13:47:15.000Z,294.71
2023-09-26T13:48:41.000Z,294.71
2023-09-26T13:50:48.000Z,294.77
2023-09-26T13:52:15.000Z,294.84
2023-09-26T13:54:21.000Z,294.9
2023-09-26T13:55:47.000Z,294.9
2023-09-26T13:57:54.000Z,295.02
2023-09-26T13:59:20.000Z,295.02
2023-09-26T14:01:26.000Z,295.02
2023-09-26T14:04:12.000Z,295.02
2023-09-26T14:05:39.000Z,295.09
2023-09-26T14:07:45.000Z,295.09
2023-09-26T14:09:12.000Z,295.09
2023-09-26T14:11:18.000Z,295.15
2023-09-26T14:12:45.000Z,295.15
2023-09-26T14:14:51.000Z,295.21
2023-09-26T14:16:18.000Z,295.21
2023-09-26T14:18:24.000Z,295.27
2023-09-26T14:19:50.000Z,295.46
2023-09-26T14:21:57.000Z,295.46
2023-09-26T14:23:23.000Z,295.46
2023-09-26T14:25:29.000Z,295.46
2023-09-26T14:26:56.000Z,295.46
2023-09-26T14:29:02.000Z,295.46
2023-09-26T14:30:29.000Z,295.52
2023-09-26T14:32:35.000Z,295.59
2023-09-26T14:34:02.000Z,295.59
2023-09-26T14:36:08.000Z,295.59
2023-09-26T14:37:35.000Z,295.52
2023-09-26T14:39:41.000Z,295.52
2023-09-26T14:42:26.000Z,295.59
2023-09-26T14:43:53.000Z,295.65
2023-09-26T14:45:59.000Z,295.71
2023-09-26T14:47:25.000Z,295.65
2023-09-26T14:49:32.000Z,295.65
2023-09-26T14:50:58.000Z,295.65
2023-09-26T14:53:05.000Z,295.65
2023-09-26T14:54:32.000Z,295.71
2023-09-26T14:56:38.000Z,295.65
2023-09-26T14:58:05.000Z,295.71
2023-09-26T15:00:11.000Z,295.71
2023-09-26T15:01:38.000Z,295.71
2023-09-26T15:03:44.000Z,295.52
2023-09-26T15:05:11.000Z,295.52
2023-09-26T15:07:17.000Z,295.52
2023-09-26T15:08:44.000Z,295.59
2023-09-26T15:10:50.000Z,295.52
2023-09-26T15:12:16.000Z,295.52
2023-09-26T15:14:22.000Z,295.46
2023-09-26T15:15:50.000Z,295.46
2023-09-26T15:17:56.000Z,295.4
2023-09-26T15:20:42.000Z,295.27
2023-09-26T15:22:08.000Z,295.34
2023-09-26T15:24:14.000Z,295.27
2023-09-26T15:25:41.000Z,295.27
2023-09-26T15:27:47.000Z,295.34
2023-09-26T15:29:14.000Z,295.34
2023-09-26T15:31:20.000Z,295.21
2023-09-26T15:32:46.000Z,295.21
2023-09-26T15:34:53.000Z,295.27
2023-09-26T15:36:20.000Z,295.21
2023-09-26T15:38:26.000Z,295.15
2023-09-26T15:39:52.000Z,295.09
2023-09-26T15:41:59.000Z,295.02
2023-09-26T15:43:25.000Z,295.02
2023-09-26T15:45:34.000Z,295.02
2023-09-26T15:47:00.000Z,295.09
2023-09-26T15:49:07.000Z,295.09
2023-09-26T15:50:33.000Z,295.09
2023-09-26T15:52:39.000Z,295.09
2023-09-26T15:54:06.000Z,295.09
2023-09-26T15:56:12.000Z,295.09
2023-09-26T15:58:58.000Z,295.09
2023-09-26T16:00:25.000Z,295.09
2023-09-26T16:02:31.000Z,294.96
2023-09-26T16:03:58.000Z,294.9
2023-09-26T16:06:04.000Z,294.77
2023-09-26T16:07:31.000Z,294.77
2023-09-26T16:09:37.000Z,294.71
2023-09-26T16:11:04.000Z,294.52
2023-09-26T16:13:10.000Z,294.4
2023-09-26T16:14:36.000Z,294.34
2023-09-26T16:16:43.000Z,294.34
2023-09-26T16:18:09.000Z,294.15
2023-09-26T16:20:16.000Z,293.84
2023-09-26T16:21:42.000Z,293.65
2023-09-26T16:23:48.000Z,293.59
2023-09-26T16:25:15.000Z,293.4
2023-09-26T16:27:21.000Z,293.27
2023-09-26T16:28:48.000Z,293.21
2023-09-26T16:30:54.000Z,293.02
2023-09-26T16:32:20.000Z,292.9
2023-09-26T16:34:27.000Z,292.71
2023-09-26T16:37:13.000Z,292.59
2023-09-26T16:38:39.000Z,292.52
2023-09-26T16:40:45.000Z,292.34
2023-09-26T16:42:12.000Z,292.21
2023-09-26T16:44:18.000Z,291.96
2023-09-26T16:45:45.000Z,291.9
2023-09-26T16:47:51.000Z,291.71
2023-09-26T16:49:17.000Z,291.65
2023-09-26T16:51:24.000Z,291.59
2023-09-26T16:52:50.000Z,291.4
2023-09-26T16:54:57.000Z,291.27
2023-09-26T16:56:23.000Z,291.21
2023-09-26T16:58:30.000Z,291.09
2023-09-26T16:59:56.000Z,290.96
2023-09-26T17:02:02.000Z,290.84
2023-09-26T17:03:30.000Z,290.77
2023-09-26T17:05:36.000Z,290.77
2023-09-26T17:07:02.000Z,290.59
2023-09-26T17:09:09.000Z,290.52
2023-09-26T17:10:35.000Z,290.4
2023-09-26T17:12:42.000Z,290.34
2023-09-26T17:15:27.000Z,290.21
2023-09-26T17:16:53.000Z,290.21
2023-09-26T17:19:00.000Z,290.15
2023-09-26T17:20:26.000Z,290.02
2023-09-26T17:22:32.000Z,289.9
2023-09-26T17:23:59.000Z,289.9
2023-09-26T17:26:06.000Z,289.9
2023-09-26T17:27:32.000Z,289.96
2023-09-26T17:29:38.000Z,289.9
2023-09-26T17:31:05.000Z,289.84
2023-09-26T17:33:11.000Z,289.77
2023-09-26T17:34:38.000Z,289.77
2023-09-26T17:36:44.000Z,289.71
2023-09-26T17:38:11.000Z,289.65
2023-09-26T17:40:17.000Z,289.59
2023-09-26T17:41:43.000Z,289.52
2023-09-26T17:43:50.000Z,289.46
2023-09-26T17:45:16.000Z,289.34
2023-09-26T17:47:22.000Z,289.27
2023-09-26T17:48:49.000Z,289.21
2023-09-26T17:50:55.000Z,289.15
2023-09-26T17:53:41.000Z,289.09
2023-09-26T17:55:07.000Z,288.96
2023-09-26T17:57:14.000Z,288.96
2023-09-26T17:58:40.000Z,288.9
2023-09-26T18:00:46.000Z,288.77
2023-09-26T18:02:13.000Z,288.71
2023-09-26T18:04:19.000Z,288.65
2023-09-26T18:05:46.000Z,288.59
2023-09-26T18:07:52.000Z,288.59
2023-09-26T18:09:18.000Z,288.52
2023-09-26T18:11:25.000Z,288.46
2023-09-26T18:12:51.000Z,288.46
2023-09-26T18:14:57.000Z,288.46
2023-09-26T18:16:24.000Z,288.46
2023-09-26T18:18:30.000Z,288.34
2023-09-26T18:19:57.000Z,288.27
2023-09-26T18:22:03.000Z,288.27
2023-09-26T18:23:30.000Z,288.21
2023-09-26T18:25:36.000Z,288.09
2023-09-26T18:27:02.000Z,288.09
2023-09-26T18:29:08.000Z,288.02
2023-09-26T18:31:54.000Z,287.9
2023-09-26T18:33:21.000Z,287.84
2023-09-26T18:35:27.000Z,287.77
2023-09-26T18:36:54.000Z,287.71
2023-09-26T18:39:00.000Z,287.71
2023-09-26T18:40:27.000Z,287.77
2023-09-26T18:42:33.000Z,287.71
2023-09-26T18:43:59.000Z,287.71
2023-09-26T18:46:06.000Z,287.71
2023-09-26T18:47:32.000Z,287.59
2023-09-26T18:49:39.000Z,287.46
2023-09-26T18:51:05.000Z,287.52
2023-09-26T18:53:11.000Z,287.52
2023-09-26T18:54:38.000Z,287.59
2023-09-26T18:56:44.000Z,287.52
2023-09-26T18:58:11.000Z,287.52
2023-09-26T19:00:17.000Z,287.34
2023-09-26T19:01:44.000Z,287.21
2023-09-26T19:03:50.000Z,287.09
2023-09-26T19:05:17.000Z,287.02
2023-09-26T19:07:23.000Z,286.96
2023-09-26T19:10:09.000Z,286.9
2023-09-26T19:11:35.000Z,286.9
2023-09-26T19:13:42.000Z,286.84
2023-09-26T19:15:08.000Z,286.96
2023-09-26T19:17:14.000Z,286.9
2023-09-26T19:18:41.000Z,286.9
2023-09-26T19:21:09.000Z,286.77
2023-09-26T19:22:35.000Z,286.77
2023-09-26T19:24:42.000Z,286.71
2023-09-26T19:26:08.000Z,286.71
2023-09-26T19:28:15.000Z,286.65
2023-09-26T19:29:42.000Z,286.71
2023-09-26T19:31:48.000Z,286.65
2023-09-26T19:33:15.000Z,286.65
2023-09-26T19:35:21.000Z,286.65
2023-09-26T19:36:48.000Z,286.65
2023-09-26T19:38:54.000Z,286.59
2023-09-26T19:40:20.000Z,286.59
2023-09-26T19:42:27.000Z,286.52
2023-09-26T19:43:53.000Z,286.46
2023-09-26T19:46:00.000Z,286.4
2023-09-26T19:48:45.000Z,286.46
2023-09-26T19:50:12.000Z,286.4
2023-09-26T19:52:18.000Z,286.27
2023-09-26T19:53:45.000Z,286.27
2023-09-26T19:55:51.000Z,286.27
2023-09-26T19:57:18.000Z,286.27
2023-09-26T19:59:24.000Z,286.15
2023-09-26T20:00:51.000Z,286.09
2023-09-26T20:02:57.000Z,285.96
2023-09-26T20:04:23.000Z,286.02
2023-09-26T20:06:30.000Z,286.09
2023-09-26T20:07:56.000Z,286.02
2023-09-26T20:10:03.000Z,285.96
2023-09-26T20:11:29.000Z,285.96
2023-09-26T20:13:35.000Z,286.02
2023-09-26T20:15:02.000Z,286.02
2023-09-26T20:17:26.000Z,285.96
2023-09-26T20:18:53.000Z,285.96
2023-09-26T20:21:00.000Z,285.9
2023-09-26T20:22:26.000Z,285.9
2023-09-26T20:24:32.000Z,285.84
2023-09-26T20:27:18.000Z,285.71
2023-09-26T20:28:44.000Z,285.77
2023-09-26T20:30:53.000Z,285.71
2023-09-26T20:32:20.000Z,285.65
2023-09-26T20:34:26.000Z,285.59
2023-09-26T20:35:53.000Z,285.65
2023-09-26T20:37:59.000Z,285.52
2023-09-26T20:39:25.000Z,285.59
2023-09-26T20:41:31.000Z,285.52
2023-09-26T20:42:58.000Z,285.46
2023-09-26T20:45:04.000Z,285.46
2023-09-26T20:46:31.000Z,285.46
2023-09-26T20:48:37.000Z,285.46
2023-09-26T20:50:04.000Z,285.4
2023-09-26T20:52:10.000Z,285.46
2023-09-26T20:53:37.000Z,285.34
2023-09-26T20:55:43.000Z,285.34
2023-09-26T20:57:13.000Z,285.27
2023-09-26T20:59:19.000Z,285.15
2023-09-26T21:00:46.000Z,285.15
2023-09-26T21:02:52.000Z,285.09
2023-09-26T21:05:37.000Z,285.02
2023-09-26T21:07:04.000Z,285.02
2023-09-26T21:09:10.000Z,284.96
2023-09-26T21:10:37.000Z,284.9
2023-09-26T21:12:43.000Z,284.9
2023-09-26T21:14:10.000Z,284.96
2023-09-26T21:16:16.000Z,284.96
2023-09-26T21:17:42.000Z,284.9
2023-09-26T21:19:49.000Z,284.84
2023-09-26T21:21:16.000Z,284.84
2023-09-26T21:23:22.000Z,284.84
2023-09-26T21:24:49.000Z,284.84
2023-09-26T21:26:55.000Z,284.77
2023-09-26T21:28:21.000Z,284.71
2023-09-26T21:30:27.000Z,284.71
2023-09-26T21:31:54.000Z,284.71
2023-09-26T21:34:00.000Z,284.71
2023-09-26T21:35:27.000Z,284.77
2023-09-26T21:37:34.000Z,284.71
2023-09-26T21:39:00.000Z,284.65
2023-09-26T21:41:06.000Z,284.65
2023-09-26T21:43:51.000Z,284.59
2023-09-26T21:45:18.000Z,284.52
2023-09-26T21:47:24.000Z,284.46
2023-09-26T21:48:51.000Z,284.46
2023-09-26T21:50:57.000Z,284.52
2023-09-26T21:52:24.000Z,284.52
2023-09-26T21:54:30.000Z,284.46
2023-09-26T21:55:57.000Z,284.46
2023-09-26T21:58:03.000Z,284.4
2023-09-26T21:59:30.000Z,284.4
2023-09-26T22:01:36.000Z,284.34
2023-09-26T22:03:03.000Z,284.4
2023-09-26T22:05:09.000Z,284.4
2023-09-26T22:06:36.000Z,284.4
2023-09-26T22:08:42.000Z,284.27
2023-09-26T22:10:09.000Z,284.27
2023-09-26T22:12:15.000Z,284.21
2023-09-26T22:13:41.000Z,284.21
2023-09-26T22:15:48.000Z,284.27
2023-09-26T22:17:15.000Z,284.21
2023-09-26T22:19:21.000Z,284.09
2023-09-26T22:22:07.000Z,284.09
2023-09-26T22:23:33.000Z,284.27
2023-09-26T22:25:39.000Z,284.34
2023-09-26T22:27:06.000Z,284.4
2023-09-26T22:29:12.000Z,284.4
2023-09-26T22:30:39.000Z,284.34
2023-09-26T22:32:45.000Z,284.27
2023-09-26T22:34:12.000Z,284.27
2023-09-26T22:36:18.000Z,284.21
2023-09-26T22:37:45.000Z,284.21
2023-09-26T22:39:51.000Z,284.21
2023-09-26T22:41:18.000Z,284.21
2023-09-26T22:43:24.000Z,284.21
2023-09-26T22:44:50.000Z,284.09
2023-09-26T22:46:57.000Z,284.09
2023-09-26T22:48:23.000Z,284.09
2023-09-26T22:50:29.000Z,284.15
2023-09-26T22:51:56.000Z,284.09
2023-09-26T22:54:03.000Z,284.02
2023-09-26T22:55:29.000Z,284.02
2023-09-26T22:57:35.000Z,283.96
2023-09-26T23:00:21.000Z,283.9
2023-09-26T23:01:47.000Z,283.9
2023-09-26T23:03:54.000Z,283.9
2023-09-26T23:05:20.000Z,283.84